Time;durP1;ratioP1;P1;durP2;ratioP2;P2;SDS_P1;SDS_P2;PMS_P1;PMS_P2;Temp;Humidity;BMP_temperature;BMP_pressure;BME280_temperature;BME280_humidity;BME280_pressure;Samples;Min_cycle;Max_cycle;Signal;HPM_P1;HPM_P2
2023/12/12 00:01:22;;;;;;;2.00;1.00;;;8.10;99.90;;;;;;5193739;28;20033;-34
2023/12/12 00:03:53;;;;;;;1.20;1.05;;;8.40;97.10;;;;;;5195034;28;20091;-34
2023/12/12 00:06:24;;;;;;;1.45;1.05;;;8.50;95.90;;;;;;5196604;28;20029;-34
2023/12/12 00:08:56;;;;;;;2.53;1.23;;;8.40;68.30;;;;;;5197066;28;20247;-34
2023/12/12 00:11:27;;;;;;;4.93;1.17;;;8.20;66.80;;;;;;5212472;28;20026;-34
2023/12/12 00:13:58;;;;;;;1.77;1.33;;;8.30;36.60;;;;;;5193035;28;20029;-34
2023/12/12 00:16:32;;;;;;;5.75;1.30;;;8.30;51.90;;;;;;5180070;28;20033;-34
2023/12/12 00:19:04;;;;;;;2.17;1.38;;;8.20;14.90;;;;;;5197369;28;20059;-34
2023/12/12 00:21:35;;;;;;;1.10;0.98;;;8.10;29.30;;;;;;5203401;28;20060;-34
2023/12/12 00:24:09;;;;;;;2.13;1.05;;;8.10;4.20;;;;;;5203727;28;20566;-36
2023/12/12 00:26:43;;;;;;;1.40;1.20;;;8.10;3.40;;;;;;5187473;28;20311;-35
2023/12/12 00:29:14;;;;;;;2.25;1.30;;;8.10;4.90;;;;;;5196990;28;20483;-36
2023/12/12 00:31:46;;;;;;;6.28;1.58;;;8.00;1.00;;;;;;5193869;28;20099;-33
2023/12/12 00:34:17;;;;;;;2.95;1.30;;;8.10;1.00;;;;;;5176107;28;20325;-36
2023/12/12 00:36:51;;;;;;;5.55;1.40;;;8.20;1.00;;;;;;5191930;28;20049;-36
2023/12/12 00:39:25;;;;;;;2.25;0.95;;;8.20;1.00;;;;;;5195796;28;20029;-39
2023/12/12 00:42:03;;;;;;;1.52;1.02;;;8.30;1.00;;;;;;5178368;28;20040;-36
2023/12/12 00:44:39;;;;;;;1.92;1.25;;;8.30;1.00;;;;;;5190414;28;20022;-36
2023/12/12 00:47:10;;;;;;;2.75;1.10;;;8.20;1.00;;;;;;5191427;28;20310;-36
2023/12/12 00:49:44;;;;;;;2.85;1.35;;;8.20;1.00;;;;;;5179924;28;20037;-34
2023/12/12 00:52:15;;;;;;;3.13;1.33;;;8.30;1.00;;;;;;5198975;28;20036;-34
2023/12/12 00:54:49;;;;;;;1.70;1.20;;;8.10;1.00;;;;;;5194481;28;20303;-34
2023/12/12 00:57:21;;;;;;;3.72;1.17;;;8.20;1.00;;;;;;5194126;28;20041;-36
2023/12/12 00:59:53;;;;;;;4.43;1.05;;;8.10;1.00;;;;;;5195066;28;20040;-36
2023/12/12 01:02:27;;;;;;;4.28;1.30;;;8.10;1.00;;;;;;5177193;28;20040;-34
2023/12/12 01:05:02;;;;;;;;;;;8.20;1.60;;;;;;5187850;28;20033;-34
2023/12/12 01:07:33;;;;;;;3.67;1.30;;;8.20;6.80;;;;;;5199364;28;19909;-34
2023/12/12 01:10:10;;;;;;;3.28;1.00;;;8.10;32.30;;;;;;5202308;28;20040;-34
2023/12/12 01:12:41;;;;;;;3.08;1.48;;;8.10;38.50;;;;;;5187794;28;20245;-34
2023/12/12 01:15:20;;;;;;;2.47;1.13;;;8.10;55.30;;;;;;5198005;28;20071;-34
2023/12/12 01:17:51;;;;;;;1.83;1.10;;;8.00;51.90;;;;;;5202571;28;20329;-34
2023/12/12 01:20:24;;;;;;;3.58;1.00;;;8.10;61.70;;;;;;5217830;28;20443;-34
2023/12/12 01:22:58;;;;;;;2.17;1.30;;;8.10;78.40;;;;;;5188909;28;20040;-34
2023/12/12 01:25:32;;;;;;;4.25;1.45;;;8.10;61.50;;;;;;5184812;28;20040;-34
2023/12/12 01:28:11;;;;;;;1.40;1.00;;;8.00;59.10;;;;;;5193019;28;20029;-36
2023/12/12 01:30:42;;;;;;;1.73;1.00;;;8.00;57.70;;;;;;5170096;28;20037;-34
2023/12/12 01:33:16;;;;;;;3.28;1.00;;;8.00;58.60;;;;;;5200299;28;20593;-36
2023/12/12 01:35:48;;;;;;;1.90;1.40;;;8.00;66.40;;;;;;5202378;28;20033;-36
2023/12/12 01:38:19;;;;;;;3.50;1.80;;;8.00;64.60;;;;;;5187474;28;20047;-34
2023/12/12 01:40:53;;;;;;;5.43;1.13;;;8.00;52.70;;;;;;5194880;28;20245;-36
2023/12/12 01:43:35;;;;;;;3.03;1.50;;;8.00;44.40;;;;;;5202322;28;20160;-36
2023/12/12 01:46:13;;;;;;;1.33;1.23;;;8.10;50.10;;;;;;5197334;28;20282;-34
2023/12/12 01:48:45;;;;;;;4.10;1.30;;;7.90;38.00;;;;;;5194401;28;20017;-36
2023/12/12 01:51:16;;;;;;;1.98;1.00;;;7.90;39.70;;;;;;5198128;28;20044;-36
2023/12/12 01:53:52;;;;;;;3.40;1.20;;;8.00;54.90;;;;;;5214767;28;20053;-36
2023/12/12 01:56:24;;;;;;;3.28;0.95;;;8.00;67.80;;;;;;5181675;28;20026;-35
2023/12/12 01:58:57;;;;;;;2.50;0.90;;;8.00;95.20;;;;;;5188126;28;20037;-35
2023/12/12 02:01:31;;;;;;;1.65;1.25;;;8.00;99.90;;;;;;5190741;28;20033;-35
2023/12/12 02:04:06;;;;;;;3.08;1.27;;;8.00;99.90;;;;;;5183666;28;21252;-35
2023/12/12 02:06:40;;;;;;;1.15;1.00;;;8.00;99.90;;;;;;5189433;28;20032;-35
2023/12/12 02:09:15;;;;;;;1.50;0.82;;;7.80;99.90;;;;;;5197754;28;20256;-35
2023/12/12 02:11:46;;;;;;;;;;;7.90;99.90;;;;;;5201124;28;20229;-35
2023/12/12 02:14:17;;;;;;;1.25;1.15;;;8.00;99.90;;;;;;5198379;28;19909;-35
2023/12/12 02:16:49;;;;;;;4.63;1.13;;;7.90;99.90;;;;;;5188348;28;20044;-36
2023/12/12 02:19:22;;;;;;;1.50;1.13;;;8.00;99.90;;;;;;5184859;28;20469;-35
2023/12/12 02:21:57;;;;;;;2.53;1.37;;;8.10;99.90;;;;;;5196766;28;20025;-35
2023/12/12 02:24:28;;;;;;;1.95;1.00;;;8.20;99.90;;;;;;5186051;28;20274;-35
2023/12/12 02:26:59;;;;;;;1.00;0.90;;;8.10;99.90;;;;;;5198099;28;20336;-35
2023/12/12 02:29:31;;;;;;;2.78;1.20;;;8.10;99.90;;;;;;5198151;28;20053;-35
2023/12/12 02:32:02;;;;;;;2.35;1.10;;;8.00;99.90;;;;;;5201838;28;20335;-36
2023/12/12 02:34:39;;;;;;;1.67;1.13;;;7.90;99.90;;;;;;5190586;28;20041;-35
2023/12/12 02:37:10;;;;;;;0.80;0.80;;;8.10;99.90;;;;;;5194862;28;20044;-35
2023/12/12 02:39:42;;;;;;;1.65;1.20;;;8.10;99.90;;;;;;5196383;28;20136;-36
2023/12/12 02:42:13;;;;;;;3.17;0.98;;;8.10;99.90;;;;;;5198327;28;20029;-35
2023/12/12 02:44:44;;;;;;;3.50;1.60;;;8.10;99.90;;;;;;5194720;28;20364;-36
2023/12/12 02:47:20;;;;;;;2.83;1.58;;;8.10;99.90;;;;;;5188616;28;20233;-35
2023/12/12 02:49:51;;;;;;;2.47;1.42;;;8.10;99.90;;;;;;5184359;28;20296;-35
2023/12/12 02:52:22;;;;;;;1.85;1.10;;;8.30;99.90;;;;;;5197925;28;20037;-35
2023/12/12 02:54:56;;;;;;;3.03;1.20;;;8.40;99.90;;;;;;5195448;28;20127;-35
2023/12/12 02:57:28;;;;;;;2.22;1.27;;;8.40;99.90;;;;;;5180102;28;20256;-35
2023/12/12 03:00:01;;;;;;;7.40;1.35;;;8.40;99.90;;;;;;5179536;28;20113;-36
2023/12/12 03:02:35;;;;;;;1.05;0.95;;;8.30;99.90;;;;;;5191604;28;20233;-35
2023/12/12 03:05:13;;;;;;;3.55;1.20;;;8.30;99.90;;;;;;5195166;28;20070;-35
2023/12/12 03:07:49;;;;;;;1.45;1.35;;;8.30;99.90;;;;;;5193782;28;20228;-36
2023/12/12 03:10:22;;;;;;;2.25;1.17;;;8.50;99.90;;;;;;5197947;28;20407;-35
2023/12/12 03:12:54;;;;;;;2.77;1.43;;;8.50;99.90;;;;;;5211040;28;20029;-35
2023/12/12 03:15:25;;;;;;;2.90;1.15;;;8.50;99.90;;;;;;5191027;28;20319;-35
2023/12/12 03:17:56;;;;;;;2.60;1.13;;;8.60;99.90;;;;;;5192307;28;20037;-35
2023/12/12 03:20:27;;;;;;;2.67;1.30;;;8.60;99.90;;;;;;5198325;28;20372;-35
2023/12/12 03:22:58;;;;;;;3.63;1.13;;;8.70;99.90;;;;;;5185740;28;20033;-35
2023/12/12 03:25:35;;;;;;;2.20;1.15;;;8.60;99.90;;;;;;5192609;28;20025;-35
2023/12/12 03:28:06;;;;;;;2.00;1.20;;;8.60;99.90;;;;;;5201322;28;20039;-35
2023/12/12 03:30:40;;;;;;;3.00;1.55;;;8.50;99.90;;;;;;5194361;28;20361;-35
2023/12/12 03:33:11;;;;;;;5.97;1.50;;;8.50;99.90;;;;;;5197117;28;20037;-35
2023/12/12 03:35:45;;;;;;;0.82;0.82;;;8.50;99.90;;;;;;5190999;28;20037;-35
2023/12/12 03:38:16;;;;;;;3.72;1.50;;;8.40;99.90;;;;;;5194744;28;20252;-35
2023/12/12 03:40:50;;;;;;;1.38;1.00;;;8.40;99.90;;;;;;5196018;28;20037;-35
2023/12/12 03:43:24;;;;;;;1.20;1.10;;;8.30;99.90;;;;;;5196211;28;20013;-35
2023/12/12 03:45:55;;;;;;;1.33;1.23;;;8.40;99.90;;;;;;5185998;28;20044;-35
2023/12/12 03:48:26;;;;;;;1.35;1.10;;;8.30;99.90;;;;;;5188792;28;20267;-35
2023/12/12 03:50:57;;;;;;;1.48;1.13;;;8.20;99.90;;;;;;5193075;28;20113;-35
2023/12/12 03:53:30;;;;;;;1.80;1.20;;;8.30;99.90;;;;;;5189611;28;20321;-35
2023/12/12 03:56:01;;;;;;;3.47;0.95;;;8.50;99.90;;;;;;5195546;28;20048;-36
2023/12/12 03:58:32;;;;;;;3.47;1.30;;;8.70;99.90;;;;;;5194784;28;20039;-35
2023/12/12 04:01:04;;;;;;;1.77;1.23;;;8.70;99.90;;;;;;5191574;28;20209;-35
2023/12/12 04:03:38;;;;;;;5.63;1.20;;;8.70;99.90;;;;;;5195094;28;20033;-35
2023/12/12 04:06:12;;;;;;;2.15;1.05;;;8.80;99.90;;;;;;5197159;28;20321;-35
2023/12/12 04:08:43;;;;;;;3.17;1.00;;;8.80;99.90;;;;;;5197789;28;20249;-35
2023/12/12 04:11:14;;;;;;;3.00;1.27;;;8.80;99.90;;;;;;5180098;28;20033;-35
2023/12/12 04:13:51;;;;;;;2.15;1.10;;;8.80;99.90;;;;;;5193645;28;20056;-35
2023/12/12 04:16:22;;;;;;;2.22;1.42;;;8.80;99.90;;;;;;5192183;28;20040;-35
2023/12/12 04:18:55;;;;;;;2.50;1.30;;;8.70;99.90;;;;;;5197407;28;20033;-35
2023/12/12 04:21:29;;;;;;;2.15;1.20;;;8.80;99.90;;;;;;5192395;28;20354;-36
2023/12/12 04:24:00;;;;;;;4.10;1.75;;;8.70;99.90;;;;;;5192216;28;20041;-34
2023/12/12 04:26:34;;;;;;;2.55;1.40;;;8.70;99.90;;;;;;5176969;28;20037;-34
2023/12/12 04:29:09;;;;;;;2.78;1.92;;;8.70;99.90;;;;;;5196894;28;20290;-36
2023/12/12 04:31:41;;;;;;;1.50;1.13;;;8.80;99.90;;;;;;5190512;28;20033;-36
2023/12/12 04:34:12;;;;;;;2.17;1.27;;;8.70;99.90;;;;;;5185072;28;20044;-33
2023/12/12 04:36:43;;;;;;;1.25;0.90;;;8.70;99.90;;;;;;5196446;28;20035;-34
2023/12/12 04:39:17;;;;;;;3.17;1.60;;;8.70;99.90;;;;;;5195077;28;20355;-34
2023/12/12 04:41:48;;;;;;;1.50;1.27;;;8.70;99.90;;;;;;5190024;28;21045;-34
2023/12/12 04:44:29;;;;;;;3.70;1.63;;;8.70;99.90;;;;;;5196774;28;20160;-34
2023/12/12 04:47:01;;;;;;;5.80;1.92;;;8.70;99.90;;;;;;5192653;28;20218;-34
2023/12/12 04:49:32;;;;;;;4.70;1.30;;;8.70;99.90;;;;;;5196301;28;20068;-34
2023/12/12 04:52:05;;;;;;;1.35;1.23;;;8.60;99.90;;;;;;5192152;28;20029;-34
2023/12/12 04:54:42;;;;;;;1.88;1.38;;;8.60;99.90;;;;;;5194740;28;20358;-34
2023/12/12 04:57:19;;;;;;;2.70;1.23;;;8.50;99.90;;;;;;5195089;28;20409;-34
2023/12/12 04:59:52;;;;;;;5.68;1.50;;;8.50;99.90;;;;;;5195597;28;20037;-34
2023/12/12 05:02:26;;;;;;;4.10;2.17;;;8.50;99.90;;;;;;5191460;28;21085;-34
2023/12/12 05:04:58;;;;;;;1.67;1.20;;;8.50;99.90;;;;;;5196871;28;20034;-34
2023/12/12 05:07:32;;;;;;;4.88;1.60;;;8.50;99.90;;;;;;5176011;28;20034;-34
2023/12/12 05:10:05;;;;;;;4.78;1.33;;;8.50;99.90;;;;;;5174931;28;20385;-34
2023/12/12 05:12:36;;;;;;;1.55;1.20;;;8.40;99.90;;;;;;5178393;28;20329;-35
2023/12/12 05:15:08;;;;;;;1.58;1.48;;;8.50;99.90;;;;;;5192486;28;20297;-34
2023/12/12 05:17:40;;;;;;;2.88;1.23;;;8.50;99.90;;;;;;5179220;28;20049;-34
2023/12/12 05:20:13;;;;;;;3.97;1.38;;;8.50;99.90;;;;;;5195490;28;20036;-34
2023/12/12 05:22:44;;;;;;;2.70;1.40;;;8.50;99.90;;;;;;5181384;28;20412;-34
2023/12/12 05:25:19;;;;;;;6.25;1.83;;;8.50;99.90;;;;;;5188479;28;20029;-34
2023/12/12 05:27:50;;;;;;;2.63;1.38;;;8.40;99.90;;;;;;5195094;28;20268;-34
2023/12/12 05:30:21;;;;;;;4.93;1.70;;;8.40;99.90;;;;;;5191331;28;20352;-34
2023/12/12 05:32:55;;;;;;;3.15;1.40;;;8.40;99.90;;;;;;5183525;28;20366;-34
2023/12/12 05:35:29;;;;;;;2.58;1.65;;;8.50;99.90;;;;;;5194387;28;20025;-35
2023/12/12 05:38:03;;;;;;;5.07;1.40;;;8.40;99.90;;;;;;5172676;28;20045;-34
2023/12/12 05:40:37;;;;;;;2.63;1.63;;;8.40;99.90;;;;;;5196475;28;20033;-34
2023/12/12 05:43:09;;;;;;;6.65;1.73;;;8.40;99.90;;;;;;5189185;28;20053;-34
2023/12/12 05:45:40;;;;;;;3.20;1.42;;;8.50;99.90;;;;;;5189940;28;20029;-34
2023/12/12 05:48:12;;;;;;;2.92;1.10;;;8.50;99.90;;;;;;5195489;28;20039;-34
2023/12/12 05:50:45;;;;;;;4.40;1.25;;;8.50;99.90;;;;;;5194351;28;20041;-34
2023/12/12 05:53:16;;;;;;;3.15;1.73;;;8.40;99.90;;;;;;5191616;28;20290;-34
2023/12/12 05:55:47;;;;;;;3.72;1.83;;;8.40;99.90;;;;;;5199037;28;20025;-34
2023/12/12 05:58:19;;;;;;;3.05;1.75;;;8.40;99.90;;;;;;5203291;28;20063;-35
2023/12/12 06:00:53;;;;;;;4.00;1.35;;;8.40;99.90;;;;;;5195183;28;20268;-34
2023/12/12 06:03:24;;;;;;;3.53;1.60;;;8.40;99.90;;;;;;5192118;28;20029;-34
2023/12/12 06:05:55;;;;;;;1.67;1.35;;;8.40;99.90;;;;;;5223122;28;20029;-34
2023/12/12 06:08:26;;;;;;;4.57;1.50;;;8.50;99.90;;;;;;5195556;28;20037;-34
2023/12/12 06:10:57;;;;;;;3.13;1.30;;;8.40;99.90;;;;;;5198910;28;20029;-35
2023/12/12 06:13:29;;;;;;;3.05;1.48;;;8.50;99.90;;;;;;5190785;28;20237;-34
2023/12/12 06:16:02;;;;;;;2.20;0.93;;;8.40;99.90;;;;;;5211301;28;20037;-34
2023/12/12 06:18:33;;;;;;;2.70;1.77;;;8.50;99.90;;;;;;5199167;28;20258;-34
2023/12/12 06:21:07;;;;;;;2.90;1.50;;;8.40;99.90;;;;;;5200982;28;20036;-34
2023/12/12 06:23:44;;;;;;;2.88;1.88;;;8.40;99.90;;;;;;5190897;28;20029;-34
2023/12/12 06:26:15;;;;;;;3.17;1.67;;;8.50;99.90;;;;;;5214241;28;20033;-34
2023/12/12 06:28:47;;;;;;;4.68;2.22;;;8.50;99.90;;;;;;5198254;28;20460;-35
2023/12/12 06:31:19;;;;;;;2.05;1.20;;;8.60;99.90;;;;;;5195439;28;20033;-34
2023/12/12 06:33:52;;;;;;;1.52;1.17;;;8.50;99.90;;;;;;5181248;28;20033;-35
2023/12/12 06:36:25;;;;;;;3.67;1.63;;;8.50;99.90;;;;;;5180711;28;20048;-34
2023/12/12 06:38:56;;;;;;;4.30;2.05;;;8.50;99.90;;;;;;5196160;28;20255;-34
2023/12/12 06:41:28;;;;;;;2.67;1.90;;;8.50;99.90;;;;;;5196016;28;20029;-34
2023/12/12 06:43:59;;;;;;;4.70;1.52;;;8.50;99.90;;;;;;5182930;28;20138;-34
2023/12/12 06:46:30;;;;;;;6.15;2.03;;;8.50;99.90;;;;;;5183456;28;20033;-35
2023/12/12 06:49:01;;;;;;;3.03;1.67;;;8.50;99.90;;;;;;5195115;28;20025;-35
2023/12/12 06:51:35;;;;;;;2.22;1.23;;;8.50;99.90;;;;;;5198939;28;20030;-34
2023/12/12 06:54:11;;;;;;;1.80;1.23;;;8.50;99.90;;;;;;5187658;28;20301;-35
2023/12/12 06:56:42;;;;;;;1.35;1.10;;;8.60;99.90;;;;;;5187423;28;20037;-35
2023/12/12 06:59:16;;;;;;;3.70;2.08;;;8.60;99.90;;;;;;5207497;28;20498;-35
2023/12/12 07:01:48;;;;;;;6.55;2.00;;;8.60;99.90;;;;;;5194272;28;20021;-34
2023/12/12 07:04:19;;;;;;;4.47;1.67;;;8.60;99.90;;;;;;5187991;28;20025;-34
2023/12/12 07:06:50;;;;;;;4.75;1.77;;;8.60;99.90;;;;;;5197031;28;20033;-34
2023/12/12 07:09:21;;;;;;;4.05;1.40;;;8.70;99.90;;;;;;5198522;28;20464;-35
2023/12/12 07:11:53;;;;;;;4.03;1.38;;;8.80;99.90;;;;;;5171192;28;20072;-34
2023/12/12 07:14:25;;;;;;;2.08;1.48;;;8.80;99.90;;;;;;5172359;28;20029;-34
2023/12/12 07:16:56;;;;;;;5.07;2.50;;;8.90;99.90;;;;;;5180151;28;20029;-35
2023/12/12 07:19:30;;;;;;;3.22;1.83;;;9.00;99.90;;;;;;5189921;28;20029;-34
2023/12/12 07:22:02;;;;;;;4.15;1.27;;;9.00;99.90;;;;;;5198771;28;20376;-35
2023/12/12 07:24:37;;;;;;;2.15;1.50;;;9.10;99.90;;;;;;5187964;28;20044;-34
2023/12/12 07:27:08;;;;;;;2.50;1.40;;;9.10;99.90;;;;;;5207999;28;20035;-34
2023/12/12 07:29:40;;;;;;;2.58;1.42;;;9.10;99.90;;;;;;5197157;28;20332;-35
2023/12/12 07:32:14;;;;;;;2.83;1.48;;;9.10;99.90;;;;;;5192746;28;20264;-35
2023/12/12 07:34:45;;;;;;;2.72;1.65;;;9.20;99.90;;;;;;5171140;28;20034;-34
2023/12/12 07:37:17;;;;;;;4.70;1.33;;;9.30;99.90;;;;;;5179523;28;20029;-35
2023/12/12 07:39:51;;;;;;;3.75;1.63;;;9.30;99.90;;;;;;5195427;28;20309;-35
2023/12/12 07:42:24;;;;;;;3.53;1.73;;;9.40;99.90;;;;;;5200212;28;20388;-35
2023/12/12 07:44:56;;;;;;;4.03;1.45;;;9.40;99.90;;;;;;5194923;28;20211;-35
2023/12/12 07:47:30;;;;;;;7.03;2.35;;;9.50;99.90;;;;;;5191663;28;20112;-34
2023/12/12 07:50:05;;;;;;;5.18;2.00;;;9.50;99.90;;;;;;5177692;28;20028;-34
2023/12/12 07:52:43;;;;;;;2.90;1.77;;;9.60;99.90;;;;;;5217362;28;20383;-34
2023/12/12 07:55:19;;;;;;;2.90;1.50;;;9.60;99.90;;;;;;5174267;28;20320;-34
2023/12/12 07:57:52;;;;;;;3.03;1.10;;;9.60;99.90;;;;;;5195500;28;20056;-34
2023/12/12 08:00:23;;;;;;;2.45;1.30;;;9.60;99.90;;;;;;5185800;28;20120;-35
2023/12/12 08:02:54;;;;;;;5.05;1.83;;;9.50;99.90;;;;;;5196519;28;20327;-35
2023/12/12 08:05:26;;;;;;;2.10;1.23;;;9.60;99.90;;;;;;5188938;28;20029;-34
2023/12/12 08:08:03;;;;;;;3.97;1.40;;;9.60;99.90;;;;;;5196857;28;20036;-34
2023/12/12 08:10:36;;;;;;;4.63;1.67;;;9.60;99.90;;;;;;5197395;28;20028;-35
2023/12/12 08:13:08;;;;;;;2.72;1.25;;;9.60;99.90;;;;;;5194624;28;20246;-35
2023/12/12 08:15:39;;;;;;;2.15;1.23;;;9.60;99.90;;;;;;5193613;28;20030;-34
2023/12/12 08:18:11;;;;;;;4.47;1.92;;;9.60;99.90;;;;;;5196427;28;20027;-34
2023/12/12 08:20:42;;;;;;;4.15;2.15;;;9.60;99.90;;;;;;5196253;28;20310;-34
2023/12/12 08:23:16;;;;;;;3.35;1.77;;;9.70;99.90;;;;;;5196612;28;20052;-34
2023/12/12 08:25:47;;;;;;;2.97;1.63;;;9.70;99.90;;;;;;5188073;28;20225;-35
2023/12/12 08:28:19;;;;;;;5.47;1.60;;;9.70;99.90;;;;;;5195293;28;20333;-34
2023/12/12 08:30:52;;;;;;;1.73;1.25;;;9.80;99.90;;;;;;5194016;28;20037;-35
2023/12/12 08:33:26;;;;;;;5.43;1.70;;;9.80;99.90;;;;;;5178224;28;20025;-35
2023/12/12 08:35:57;;;;;;;5.15;1.60;;;9.90;99.90;;;;;;5184773;28;20267;-35
2023/12/12 08:38:29;;;;;;;3.03;1.27;;;9.90;99.90;;;;;;5196448;28;20047;-34
2023/12/12 08:41:01;;;;;;;3.60;1.70;;;9.90;99.90;;;;;;5194969;28;20041;-35
2023/12/12 08:43:32;;;;;;;2.67;1.48;;;9.90;99.90;;;;;;5204813;28;20036;-35
2023/12/12 08:46:04;;;;;;;1.90;1.50;;;10.00;99.90;;;;;;5190342;28;20037;-34
2023/12/12 08:48:35;;;;;;;3.28;1.30;;;10.00;99.90;;;;;;5196786;28;20217;-35
2023/12/12 08:51:08;;;;;;;4.13;2.03;;;10.00;99.90;;;;;;5198800;28;20037;-35
2023/12/12 08:53:40;;;;;;;8.18;1.70;;;10.10;99.90;;;;;;5188914;28;20029;-35
2023/12/12 08:56:14;;;;;;;5.28;1.77;;;10.10;70.70;;;;;;5185271;28;20021;-35
2023/12/12 08:58:48;;;;;;;6.03;1.40;;;10.10;55.10;;;;;;5195396;28;20031;-35
2023/12/12 09:01:19;;;;;;;3.97;1.17;;;10.20;12.30;;;;;;5192712;28;20029;-34
2023/12/12 09:03:53;;;;;;;7.15;1.52;;;10.20;8.50;;;;;;5162406;28;20033;-35
2023/12/12 09:06:24;;;;;;;5.67;2.53;;;10.30;1.00;;;;;;5194371;28;20025;-35
2023/12/12 09:08:55;;;;;;;1.65;1.13;;;10.30;1.00;;;;;;5195341;28;20029;-35
2023/12/12 09:11:27;;;;;;;2.33;1.25;;;10.30;1.00;;;;;;5196710;28;20033;-35
2023/12/12 09:13:58;;;;;;;6.88;1.92;;;10.30;1.00;;;;;;5193534;28;20037;-35
2023/12/12 09:16:29;;;;;;;3.22;1.63;;;10.30;1.00;;;;;;5193655;28;20033;-34
2023/12/12 09:19:03;;;;;;;2.63;1.63;;;10.40;1.00;;;;;;5196312;28;20029;-35
2023/12/12 09:21:35;;;;;;;6.45;1.67;;;10.40;1.00;;;;;;5198023;28;20283;-35
2023/12/12 09:24:06;;;;;;;4.97;1.60;;;10.40;1.00;;;;;;5186372;28;20459;-35
2023/12/12 09:26:37;;;;;;;3.83;1.52;;;10.40;1.00;;;;;;5177756;28;20030;-35
2023/12/12 09:29:14;;;;;;;2.45;1.13;;;10.40;1.00;;;;;;5195629;28;20033;-34
2023/12/12 09:31:45;;;;;;;4.05;1.95;;;10.40;1.00;;;;;;5197977;28;20022;-35
2023/12/12 09:34:16;;;;;;;4.53;1.38;;;10.30;1.00;;;;;;5193017;28;20356;-35
2023/12/12 09:36:50;;;;;;;3.20;1.25;;;10.30;1.00;;;;;;5199694;28;20029;-34
2023/12/12 09:39:24;;;;;;;4.57;1.08;;;10.30;1.00;;;;;;5198847;28;20033;-35
2023/12/12 09:42:00;;;;;;;3.15;1.38;;;10.30;1.00;;;;;;5197848;28;20044;-35
2023/12/12 09:44:34;;;;;;;2.78;1.55;;;10.40;1.00;;;;;;5208753;28;20025;-34
2023/12/12 09:47:08;;;;;;;8.52;1.50;;;10.50;1.00;;;;;;5175505;28;20033;-35
2023/12/12 09:49:46;;;;;;;3.35;1.55;;;10.50;1.00;;;;;;5187481;28;20038;-35
2023/12/12 09:52:19;;;;;;;5.22;1.55;;;10.70;1.00;;;;;;5198036;28;20045;-35
2023/12/12 09:54:54;;;;;;;3.58;2.47;;;10.90;1.00;;;;;;5195145;28;20044;-35
2023/12/12 09:57:30;;;;;;;2.40;1.60;;;11.00;1.00;;;;;;5196604;28;20043;-35
2023/12/12 10:00:05;;;;;;;6.15;1.80;;;11.20;1.00;;;;;;5192496;28;20032;-35
2023/12/12 10:02:41;;;;;;;3.80;1.30;;;11.20;1.00;;;;;;5202532;28;20239;-35
2023/12/12 10:05:16;;;;;;;2.92;1.23;;;11.20;1.00;;;;;;5193764;28;20063;-35
2023/12/12 10:07:53;;;;;;;4.55;1.50;;;11.10;1.00;;;;;;5180829;28;20072;-35
2023/12/12 10:10:24;;;;;;;2.50;1.30;;;11.10;1.00;;;;;;5205865;28;20203;-35
2023/12/12 10:12:55;;;;;;;4.75;1.73;;;11.10;1.00;;;;;;5190580;28;20041;-35
2023/12/12 10:15:27;;;;;;;3.40;1.67;;;11.10;1.00;;;;;;5182095;28;20559;-35
2023/12/12 10:18:00;;;;;;;8.25;1.60;;;11.10;1.00;;;;;;5185459;28;20044;-35
2023/12/12 10:20:31;;;;;;;4.75;1.92;;;11.00;1.00;;;;;;5193473;28;20037;-35
2023/12/12 10:23:06;;;;;;;3.95;1.50;;;11.00;1.00;;;;;;5200207;28;20538;-35
2023/12/12 10:25:49;;;;;;;6.10;2.25;;;11.10;1.00;;;;;;5182193;28;20033;-34
2023/12/12 10:28:20;;;;;;;9.98;1.58;;;11.10;1.00;;;;;;5197064;28;20340;-35
2023/12/12 10:30:52;;;;;;;6.20;1.88;;;11.20;1.00;;;;;;5194228;28;20033;-35
2023/12/12 10:33:27;;;;;;;8.75;1.88;;;11.20;1.00;;;;;;5196505;28;20033;-35
2023/12/12 10:36:03;;;;;;;6.78;2.00;;;11.30;1.00;;;;;;5189619;28;20041;-35
2023/12/12 10:38:35;;;;;;;4.95;1.25;;;11.20;1.00;;;;;;5183609;28;20071;-35
2023/12/12 10:41:14;;;;;;;4.10;2.05;;;11.20;1.00;;;;;;5192808;28;20272;-35
2023/12/12 10:43:47;;;;;;;4.97;1.85;;;11.20;1.00;;;;;;5197270;28;20175;-35
2023/12/12 10:46:22;;;;;;;4.55;1.58;;;11.30;1.00;;;;;;5195554;28;20136;-35
2023/12/12 10:48:53;;;;;;;;;;;11.50;1.00;;;;;;5200156;28;20022;-35
2023/12/12 10:51:28;;;;;;;4.18;1.50;;;11.80;1.00;;;;;;5194347;28;19939;-37
2023/12/12 10:54:03;;;;;;;3.40;1.67;;;13.20;1.00;;;;;;5182131;28;20033;-34
2023/12/12 10:56:38;;;;;;;5.53;1.75;;;15.90;1.00;;;;;;5192646;28;20368;-36
2023/12/12 10:59:09;;;;;;;7.18;2.08;;;18.20;1.00;;;;;;5195497;28;20060;-36
2023/12/12 11:01:40;;;;;;;2.17;1.50;;;18.50;1.00;;;;;;5191321;28;20045;-36
2023/12/12 11:04:12;;;;;;;6.13;1.83;;;17.50;1.00;;;;;;5189871;28;20373;-36
2023/12/12 11:06:46;;;;;;;5.55;1.95;;;16.30;1.00;;;;;;5195839;28;20033;-36
2023/12/12 11:09:20;;;;;;;4.78;2.17;;;15.80;1.00;;;;;;5198263;28;20033;-36
2023/12/12 11:11:53;;;;;;;4.53;1.77;;;14.90;1.00;;;;;;5213166;28;20033;-36
2023/12/12 11:14:27;;;;;;;6.95;1.70;;;13.70;1.00;;;;;;5176794;28;20041;-35
2023/12/12 11:16:59;;;;;;;4.60;1.80;;;13.20;1.00;;;;;;5185513;28;20048;-36
2023/12/12 11:19:31;;;;;;;5.50;1.88;;;12.80;1.00;;;;;;5189501;28;20044;-36
2023/12/12 11:22:03;;;;;;;5.22;1.48;;;12.80;1.00;;;;;;5211726;28;20025;-35
2023/12/12 11:25:00;;;;;;;3.83;1.63;;;12.80;1.00;;;;;;5195749;28;20529;-36
2023/12/12 11:27:35;;;;;;;3.35;1.65;;;13.20;1.00;;;;;;5209143;28;20045;-35
2023/12/12 11:30:10;;;;;;;6.18;2.10;;;13.30;1.00;;;;;;5194888;28;20025;-35
2023/12/12 11:32:48;;;;;;;3.42;1.45;;;13.70;1.00;;;;;;5195128;28;20257;-36
2023/12/12 11:35:30;;;;;;;3.00;1.65;;;14.80;1.00;;;;;;5183193;28;20354;-36
2023/12/12 11:38:05;;;;;;;3.17;1.80;;;16.60;1.00;;;;;;5208677;28;20291;-36
2023/12/12 11:40:37;;;;;;;3.33;1.63;;;18.10;1.00;;;;;;5195427;28;20025;-36
2023/12/12 11:43:20;;;;;;;5.75;2.20;;;18.00;1.00;;;;;;5194107;28;20060;-35
2023/12/12 11:45:54;;;;;;;2.95;1.58;;;16.40;1.00;;;;;;5190911;28;20037;-35
2023/12/12 11:48:27;;;;;;;4.65;2.00;;;15.50;1.00;;;;;;5212797;28;20033;-35
2023/12/12 11:50:58;;;;;;;3.90;1.75;;;14.60;1.00;;;;;;5197944;28;20229;-35
2023/12/12 11:53:42;;;;;;;3.65;1.48;;;14.10;1.00;;;;;;5197932;28;20033;-35
2023/12/12 11:56:17;;;;;;;6.03;2.25;;;14.00;1.00;;;;;;5188526;28;20042;-35
2023/12/12 11:58:55;;;;;;;5.45;1.75;;;15.20;1.00;;;;;;5196545;28;20029;-36
2023/12/12 12:01:30;;;;;;;3.85;2.20;;;16.50;1.00;;;;;;5193997;28;20163;-35
2023/12/12 12:04:02;;;;;;;3.53;2.03;;;17.60;1.00;;;;;;5191143;28;20025;-35
2023/12/12 12:06:33;;;;;;;5.70;2.38;;;18.80;1.00;;;;;;5193385;28;21050;-36
2023/12/12 12:09:09;;;;;;;5.72;1.92;;;19.30;1.00;;;;;;5189540;28;20029;-36
2023/12/12 12:11:40;;;;;;;3.78;2.13;;;18.00;1.00;;;;;;5197424;28;20036;-36
2023/12/12 12:14:13;;;;;;;11.05;4.72;;;17.40;1.00;;;;;;5194755;28;20037;-36
2023/12/12 12:16:45;;;;;;;5.88;3.03;;;18.00;1.00;;;;;;5194367;28;20029;-35
2023/12/12 12:19:37;;;;;;;5.57;2.00;;;18.20;1.00;;;;;;5196652;28;20382;-36
2023/12/12 12:22:12;;;;;;;4.88;2.38;;;18.20;1.00;;;;;;5203575;28;20570;-36
2023/12/12 12:24:47;;;;;;;7.93;2.42;;;18.20;1.00;;;;;;5193952;28;20029;-35
2023/12/12 12:27:19;;;;;;;11.50;2.65;;;18.30;1.00;;;;;;5183357;28;20268;-36
2023/12/12 12:30:05;;;;;;;3.88;2.10;;;18.10;1.00;;;;;;5180129;28;20030;-36
2023/12/12 12:32:37;;;;;;;6.07;2.40;;;18.10;1.00;;;;;;5194536;28;20029;-36
2023/12/12 12:35:11;;;;;;;3.90;2.15;;;18.00;1.00;;;;;;5189501;28;20033;-36
2023/12/12 12:37:43;;;;;;;4.40;2.33;;;17.70;1.00;;;;;;5187220;28;20024;-36
2023/12/12 12:40:31;;;;;;;4.22;2.10;;;17.50;1.00;;;;;;5195178;28;20040;-35
2023/12/12 12:43:15;;;;;;;3.80;1.73;;;17.30;1.00;;;;;;5195185;28;20067;-36
2023/12/12 12:45:50;;;;;;;4.35;2.05;;;16.60;1.00;;;;;;5185859;28;20021;-36
2023/12/12 12:48:27;;;;;;;3.58;2.40;;;16.10;1.00;;;;;;5195728;28;20021;-35
2023/12/12 12:51:01;;;;;;;5.68;2.40;;;15.30;1.00;;;;;;5180354;28;20033;-36
2023/12/12 12:53:35;;;;;;;4.53;2.33;;;14.40;1.00;;;;;;5158500;28;20085;-36
2023/12/12 12:56:07;;;;;;;;;;;14.10;1.00;;;;;;5194019;28;20037;-36
2023/12/12 12:58:39;;;;;;;4.63;2.47;;;13.90;1.00;;;;;;5191685;28;20028;-36
2023/12/12 13:01:10;;;;;;;6.55;2.53;;;13.70;1.00;;;;;;5175919;28;20059;-36
2023/12/12 13:03:41;;;;;;;5.43;2.25;;;13.40;1.00;;;;;;5182432;28;20044;-35
2023/12/12 13:06:14;;;;;;;6.22;3.25;;;13.30;1.00;;;;;;5187110;28;20029;-35
2023/12/12 13:08:51;;;;;;;9.93;2.45;;;13.30;1.00;;;;;;5177941;28;20066;-35
2023/12/12 13:11:22;;;;;;;3.25;2.22;;;13.10;1.00;;;;;;5194214;28;20034;-35
2023/12/12 13:13:53;;;;;;;4.38;1.92;;;12.90;1.00;;;;;;5194969;28;20033;-35
2023/12/12 13:16:24;;;;;;;6.43;2.35;;;12.60;1.00;;;;;;5192375;28;20167;-35
2023/12/12 13:18:55;;;;;;;7.28;2.42;;;12.40;1.00;;;;;;5194083;28;20318;-35
2023/12/12 13:21:29;;;;;;;4.55;2.17;;;12.40;1.00;;;;;;5200939;28;20232;-36
2023/12/12 13:24:00;;;;;;;6.20;2.38;;;12.30;1.00;;;;;;5196151;28;20034;-35
2023/12/12 13:26:32;;;;;;;6.90;2.80;;;12.20;1.00;;;;;;5186363;28;20349;-35
2023/12/12 13:29:03;;;;;;;8.23;2.22;;;12.20;1.00;;;;;;5196388;28;20336;-35